Time;durP1;ratioP1;P1;durP2;ratioP2;P2;SDS_P1;SDS_P2;PMS_P1;PMS_P2;Temp;Humidity;BMP_temperature;BMP_pressure;BME280_temperature;BME280_humidity;BME280_pressure;Samples;Min_cycle;Max_cycle;Signal;HPM_P1;HPM_P2
2023/08/13 00:00:46;;;;;;;15.87;5.77;;;20.20;47.80;;;;;;5059563;28;46429;-70
2023/08/13 00:03:11;;;;;;;12.20;6.07;;;20.20;47.80;;;;;;5059278;28;47872;-70
2023/08/13 00:05:37;;;;;;;12.17;6.57;;;20.10;47.70;;;;;;5058066;28;46518;-70
2023/08/13 00:08:03;;;;;;;11.37;6.10;;;20.10;47.70;;;;;;5059348;28;46370;-71
2023/08/13 00:10:29;;;;;;;11.40;6.37;;;20.10;47.70;;;;;;5057039;28;46505;-71
2023/08/13 00:12:55;;;;;;;9.80;6.40;;;20.10;47.70;;;;;;5074688;28;47997;-71
2023/08/13 00:15:20;;;;;;;9.73;6.07;;;20.10;48.30;;;;;;5059521;28;46557;-71
2023/08/13 00:17:46;;;;;;;14.43;6.60;;;20.00;48.60;;;;;;5057903;28;46428;-72
2023/08/13 00:20:12;;;;;;;15.63;6.37;;;20.10;48.90;;;;;;5075418;28;47005;-70
2023/08/13 00:22:37;;;;;;;11.13;7.50;;;20.00;48.90;;;;;;5059015;28;48030;-71
2023/08/13 00:25:03;;;;;;;13.80;7.47;;;20.00;49.20;;;;;;5059469;28;46405;-72
2023/08/13 00:27:29;;;;;;;12.10;7.37;;;20.00;49.60;;;;;;5057967;28;46494;-71
2023/08/13 00:29:55;;;;;;;15.03;7.20;;;19.90;50.30;;;;;;5059382;28;46502;-71
2023/08/13 00:32:20;;;;;;;11.17;6.77;;;19.90;51.00;;;;;;5056973;28;47874;-72
2023/08/13 00:34:46;;;;;;;14.77;7.27;;;19.90;51.40;;;;;;5058772;28;46405;-70
2023/08/13 00:37:12;;;;;;;15.00;7.47;;;19.90;52.10;;;;;;5059079;28;46499;-72
2023/08/13 00:39:37;;;;;;;9.23;6.33;;;19.80;52.20;;;;;;5058283;28;46450;-71
2023/08/13 00:42:05;;;;;;;9.50;6.17;;;19.80;52.60;;;;;;5057235;28;47406;-70
2023/08/13 00:44:30;;;;;;;11.00;6.63;;;19.80;52.70;;;;;;5058563;28;46493;-70
2023/08/13 00:46:56;;;;;;;17.43;7.87;;;19.70;52.60;;;;;;5058691;28;46593;-70
2023/08/13 00:49:23;;;;;;;12.10;7.27;;;19.70;52.70;;;;;;5058801;28;46750;-70
2023/08/13 00:51:49;;;;;;;19.33;8.10;;;19.70;53.10;;;;;;5058882;28;47869;-71
2023/08/13 00:54:15;;;;;;;12.70;7.30;;;19.60;53.60;;;;;;5057863;28;46305;-71
2023/08/13 00:56:41;;;;;;;16.27;8.20;;;19.60;54.00;;;;;;5059143;28;46002;-70
2023/08/13 00:59:08;;;;;;;16.80;8.47;;;19.60;54.20;;;;;;5059129;28;46463;-73
2023/08/13 01:01:34;;;;;;;11.80;7.53;;;19.60;54.20;;;;;;5058340;28;48760;-71
2023/08/13 01:03:59;;;;;;;19.30;8.47;;;19.60;54.30;;;;;;5058666;28;46440;-70
2023/08/13 01:06:41;;;;;;;13.93;7.77;;;19.60;54.40;;;;;;5059294;28;46660;-70
2023/08/13 01:09:16;;;;;;;17.87;7.40;;;19.60;54.60;;;;;;5073807;28;46472;-72
2023/08/13 01:11:58;;;;;;;12.40;8.10;;;19.50;54.40;;;;;;5056931;28;48768;-71
2023/08/13 01:14:27;;;;;;;11.73;6.30;;;19.50;54.70;;;;;;5075699;28;45855;-72
2023/08/13 01:16:55;;;;;;;11.37;5.50;;;19.50;54.50;;;;;;5059804;28;46813;-71
2023/08/13 01:19:22;;;;;;;19.83;6.17;;;19.40;54.70;;;;;;5058917;28;46488;-70
2023/08/13 01:21:47;;;;;;;17.80;6.90;;;19.30;54.80;;;;;;5058069;28;47732;-70
2023/08/13 01:24:13;;;;;;;7.90;6.20;;;19.30;54.70;;;;;;5073894;28;46473;-71
2023/08/13 01:26:58;;;;;;;12.70;6.10;;;19.30;54.60;;;;;;5057334;28;46484;-71
2023/08/13 01:29:54;;;;;;;16.43;6.70;;;19.40;54.50;;;;;;5078212;27;46983;-71
2023/08/13 01:32:28;;;;;;;10.87;6.37;;;19.30;54.40;;;;;;5041693;28;46422;-70
2023/08/13 01:34:55;;;;;;;10.53;7.40;;;19.30;54.00;;;;;;5054588;28;46326;-71
2023/08/13 01:37:22;;;;;;;19.17;6.53;;;19.40;53.90;;;;;;5056911;28;46471;-70
2023/08/13 01:39:50;;;;;;;12.87;6.90;;;19.30;53.80;;;;;;5055053;28;46460;-70
2023/08/13 01:42:17;;;;;;;13.80;6.50;;;19.30;53.90;;;;;;5058305;28;46405;-71
2023/08/13 01:44:43;;;;;;;12.07;6.97;;;19.30;54.00;;;;;;5055617;28;46402;-70
2023/08/13 01:47:10;;;;;;;18.27;7.03;;;19.30;54.20;;;;;;5057735;28;45814;-71
2023/08/13 01:49:36;;;;;;;10.43;6.27;;;19.20;54.20;;;;;;5060406;28;46432;-71
2023/08/13 01:52:07;;;;;;;14.30;6.30;;;19.20;54.30;;;;;;5055848;28;46542;-70
2023/08/13 01:54:37;;;;;;;15.90;6.43;;;19.20;54.20;;;;;;5071209;28;46697;-70
2023/08/13 01:57:04;;;;;;;9.53;6.83;;;19.20;54.10;;;;;;5057941;28;46493;-70
2023/08/13 01:59:30;;;;;;;11.03;6.87;;;19.20;54.20;;;;;;5053865;28;46499;-71
2023/08/13 02:01:57;;;;;;;11.83;7.40;;;19.20;54.10;;;;;;5055389;28;47181;-71
2023/08/13 02:04:23;;;;;;;13.00;6.80;;;19.20;54.10;;;;;;5071509;28;46365;-71
2023/08/13 02:06:51;;;;;;;11.40;6.73;;;19.20;54.20;;;;;;5055976;28;45925;-69
2023/08/13 02:09:20;;;;;;;20.27;7.87;;;19.20;54.20;;;;;;5055583;28;46569;-69
2023/08/13 02:11:47;;;;;;;10.43;6.70;;;19.20;54.30;;;;;;5055969;28;47080;-71
2023/08/13 02:14:13;;;;;;;9.43;6.67;;;19.20;54.50;;;;;;5057465;28;46408;-71
2023/08/13 02:16:39;;;;;;;13.53;7.00;;;19.10;54.50;;;;;;5055075;28;46472;-70
2023/08/13 02:19:11;;;;;;;13.70;8.87;;;19.20;54.60;;;;;;5055471;28;46758;-69
2023/08/13 02:21:38;;;;;;;18.73;10.07;;;19.10;54.80;;;;;;5055085;28;47036;-70
2023/08/13 02:24:04;;;;;;;18.50;12.07;;;19.10;55.10;;;;;;5054605;28;46428;-71
2023/08/13 02:26:33;;;;;;;18.90;11.73;;;19.10;55.70;;;;;;5055757;28;46404;-71
2023/08/13 02:28:59;;;;;;;24.40;12.50;;;19.00;56.20;;;;;;5056278;28;46488;-70
2023/08/13 02:31:26;;;;;;;14.70;11.77;;;19.00;56.70;;;;;;5056217;28;46602;-70
2023/08/13 02:33:54;;;;;;;17.67;12.40;;;19.00;57.10;;;;;;5053310;28;46509;-70
2023/08/13 02:36:22;;;;;;;14.57;11.73;;;19.00;57.40;;;;;;5053363;28;46436;-70
2023/08/13 02:38:50;;;;;;;21.23;11.90;;;19.00;57.90;;;;;;5055109;28;46721;-70
2023/08/13 02:41:16;;;;;;;19.80;11.80;;;19.00;58.00;;;;;;5065721;28;46519;-70
2023/08/13 02:43:52;;;;;;;20.60;11.37;;;19.00;58.10;;;;;;5049183;28;46568;-71
2023/08/13 02:46:21;;;;;;;22.37;11.30;;;19.00;58.40;;;;;;5059699;28;46546;-72
2023/08/13 02:48:47;;;;;;;20.27;10.80;;;19.00;58.40;;;;;;5059116;28;46282;-71
2023/08/13 02:51:13;;;;;;;18.23;10.23;;;19.00;58.60;;;;;;5058715;28;47705;-70
2023/08/13 02:53:40;;;;;;;16.27;10.50;;;19.00;58.80;;;;;;5061729;28;46519;-71
2023/08/13 02:56:06;;;;;;;15.33;10.20;;;19.00;58.90;;;;;;5059835;28;47505;-71
2023/08/13 02:58:32;;;;;;;13.23;9.33;;;19.00;59.00;;;;;;5063764;28;46830;-70
2023/08/13 03:00:58;;;;;;;12.30;9.03;;;19.00;58.90;;;;;;5073132;28;49139;-72
2023/08/13 03:03:23;;;;;;;13.30;9.07;;;19.00;58.90;;;;;;5058599;28;46303;-74
2023/08/13 03:05:49;;;;;;;20.23;9.40;;;18.90;59.00;;;;;;5059124;28;46881;-70
2023/08/13 03:08:15;;;;;;;13.13;8.50;;;18.90;59.10;;;;;;5060269;28;46385;-71
2023/08/13 03:10:41;;;;;;;17.90;9.37;;;18.80;58.30;;;;;;5055423;28;48094;-73
2023/08/13 03:13:06;;;;;;;12.90;10.00;;;18.80;59.20;;;;;;5074008;27;46278;-71
2023/08/13 03:15:32;;;;;;;15.07;10.70;;;18.80;59.40;;;;;;5065410;28;46563;-71
2023/08/13 03:17:58;;;;;;;12.93;9.30;;;18.80;59.80;;;;;;5074751;27;46587;-72
2023/08/13 03:20:23;;;;;;;16.07;11.00;;;18.70;59.70;;;;;;5058952;28;48010;-72
2023/08/13 03:22:49;;;;;;;14.80;10.30;;;18.70;59.70;;;;;;5060303;28;46444;-70
2023/08/13 03:25:15;;;;;;;16.70;10.40;;;18.70;59.70;;;;;;5058173;28;46410;-72
2023/08/13 03:27:41;;;;;;;16.70;10.40;;;18.80;59.80;;;;;;5060742;28;46508;-73
2023/08/13 03:30:07;;;;;;;13.30;8.93;;;18.70;59.70;;;;;;5056154;28;48122;-72
2023/08/13 03:32:33;;;;;;;12.93;9.30;;;18.70;59.70;;;;;;5057659;28;46477;-71
2023/08/13 03:34:58;;;;;;;15.57;9.87;;;18.70;59.70;;;;;;5059420;28;46589;-70
2023/08/13 03:37:24;;;;;;;16.87;8.90;;;18.60;59.60;;;;;;5057630;28;46392;-70
2023/08/13 03:39:50;;;;;;;13.90;8.47;;;18.60;59.60;;;;;;5074732;27;46327;-72
2023/08/13 03:42:16;;;;;;;18.27;8.77;;;18.50;59.50;;;;;;5057634;28;46459;-72
2023/08/13 03:44:41;;;;;;;11.90;8.80;;;18.50;59.60;;;;;;5058601;28;46712;-71
2023/08/13 03:47:07;;;;;;;12.13;9.10;;;18.50;59.60;;;;;;5057938;28;46378;-71
2023/08/13 03:49:33;;;;;;;14.60;8.60;;;18.50;59.50;;;;;;5057507;28;49631;-72
2023/08/13 03:51:59;;;;;;;12.17;7.97;;;18.50;59.50;;;;;;5057605;28;46532;-71
2023/08/13 03:54:25;;;;;;;12.33;7.60;;;18.40;59.40;;;;;;5057776;28;46426;-73
2023/08/13 03:56:51;;;;;;;11.20;7.47;;;18.40;59.40;;;;;;5060466;28;46527;-71
2023/08/13 03:59:16;;;;;;;8.60;6.70;;;18.40;59.40;;;;;;5055651;28;46475;-72
2023/08/13 04:01:42;;;;;;;11.50;7.50;;;18.30;59.40;;;;;;5056977;28;46437;-71
2023/08/13 04:04:08;;;;;;;11.07;6.90;;;18.30;59.30;;;;;;5055742;28;46313;-71
2023/08/13 04:06:34;;;;;;;8.93;6.40;;;18.20;59.20;;;;;;5052918;28;46762;-72
2023/08/13 04:09:00;;;;;;;11.37;6.90;;;18.20;59.30;;;;;;5054702;28;48185;-73
2023/08/13 04:11:25;;;;;;;11.73;7.43;;;18.20;59.30;;;;;;5058091;28;46431;-71
2023/08/13 04:13:51;;;;;;;12.07;7.77;;;18.20;59.20;;;;;;5054561;28;45842;-72
2023/08/13 04:16:17;;;;;;;13.93;8.97;;;18.20;59.30;;;;;;5055445;28;46450;-72
2023/08/13 04:18:42;;;;;;;18.10;10.67;;;18.30;60.40;;;;;;5053207;28;47944;-71
2023/08/13 04:21:08;;;;;;;16.57;9.17;;;18.30;59.30;;;;;;5060178;28;46922;-72
2023/08/13 04:23:34;;;;;;;17.70;8.47;;;18.40;59.50;;;;;;5054590;28;46431;-71
2023/08/13 04:25:59;;;;;;;15.30;10.23;;;18.50;59.50;;;;;;5056495;28;46464;-72
2023/08/13 04:28:25;;;;;;;14.90;9.23;;;18.60;59.60;;;;;;5054081;28;47980;-71
2023/08/13 04:30:51;;;;;;;14.03;9.30;;;18.60;59.60;;;;;;5056298;28;46487;-71
2023/08/13 04:33:16;;;;;;;14.23;10.07;;;18.70;59.70;;;;;;5056218;28;46858;-70
2023/08/13 04:35:42;;;;;;;17.60;9.30;;;18.80;59.60;;;;;;5056049;28;46634;-71
2023/08/13 04:38:08;;;;;;;14.57;8.70;;;19.00;59.30;;;;;;5056967;28;49108;-73
2023/08/13 04:40:37;;;;;;;10.97;8.10;;;19.20;57.50;;;;;;5056507;28;46209;-71
2023/08/13 04:43:02;;;;;;;11.20;7.70;;;19.20;58.70;;;;;;5053124;28;46595;-74
2023/08/13 04:45:28;;;;;;;12.90;7.97;;;19.30;58.50;;;;;;5055997;28;46529;-73
2023/08/13 04:47:54;;;;;;;17.30;8.43;;;19.30;58.60;;;;;;5056728;28;46542;-72
2023/08/13 04:50:19;;;;;;;15.90;7.77;;;19.30;59.00;;;;;;5055045;28;45854;-70
2023/08/13 04:52:45;;;;;;;11.90;7.20;;;19.30;59.40;;;;;;5055174;28;45846;-71
2023/08/13 04:55:11;;;;;;;10.13;6.77;;;19.40;59.60;;;;;;5056747;28;46425;-73
2023/08/13 04:57:37;;;;;;;11.50;7.43;;;19.50;59.20;;;;;;5055410;28;46163;-70
2023/08/13 05:00:04;;;;;;;14.87;8.67;;;19.70;58.70;;;;;;5056201;28;46596;-71
2023/08/13 05:02:29;;;;;;;10.57;6.97;;;19.80;58.10;;;;;;5055722;28;45884;-74
2023/08/13 05:04:55;;;;;;;8.93;6.90;;;20.00;57.70;;;;;;5054605;28;46496;-70
2023/08/13 05:07:22;;;;;;;8.30;6.30;;;20.40;57.30;;;;;;5055443;28;47845;-70
2023/08/13 05:09:48;;;;;;;8.23;6.03;;;21.20;57.30;;;;;;5054096;28;46277;-70
2023/08/13 05:12:13;;;;;;;12.13;6.07;;;22.10;55.70;;;;;;5054906;28;46360;-71
2023/08/13 05:14:39;;;;;;;10.13;5.60;;;22.80;53.40;;;;;;5056358;28;45939;-71
2023/08/13 05:17:20;;;;;;;13.80;6.17;;;23.20;52.20;;;;;;5054895;28;46663;-70
2023/08/13 05:19:46;;;;;;;8.40;5.20;;;23.60;51.00;;;;;;5055088;28;46778;-71
2023/08/13 05:22:11;;;;;;;13.03;5.60;;;23.90;50.70;;;;;;5056396;28;46686;-71
2023/08/13 05:24:37;;;;;;;13.13;5.30;;;23.70;49.90;;;;;;5056499;28;46424;-71
2023/08/13 05:27:03;;;;;;;9.13;5.57;;;24.20;48.60;;;;;;5057150;28;47895;-72
2023/08/13 05:29:29;;;;;;;8.97;5.03;;;25.00;44.70;;;;;;5057198;28;45874;-71
2023/08/13 05:31:55;;;;;;;10.20;5.07;;;25.70;41.10;;;;;;5056701;28;46819;-71
2023/08/13 05:34:21;;;;;;;14.23;5.40;;;26.20;38.60;;;;;;5056269;28;46381;-74
2023/08/13 05:36:47;;;;;;;20.57;5.00;;;26.10;37.70;;;;;;5057847;28;48166;-72
2023/08/13 05:39:13;;;;;;;14.10;5.80;;;26.30;36.40;;;;;;5060433;28;46751;-70
2023/08/13 05:41:38;;;;;;;7.47;4.87;;;26.30;35.50;;;;;;5055390;28;46566;-71
2023/08/13 05:44:04;;;;;;;10.57;6.10;;;26.00;35.40;;;;;;5051800;28;46521;-71
2023/08/13 05:46:30;;;;;;;8.87;5.50;;;25.30;36.30;;;;;;5056276;28;46474;-72
2023/08/13 05:48:56;;;;;;;11.33;6.30;;;24.70;38.30;;;;;;5052909;28;46374;-72
2023/08/13 05:51:22;;;;;;;11.73;6.17;;;24.20;39.30;;;;;;5054326;28;46523;-71
2023/08/13 05:53:48;;;;;;;8.60;6.00;;;23.80;40.10;;;;;;5053226;28;46508;-71
2023/08/13 05:56:13;;;;;;;18.20;6.30;;;23.70;40.40;;;;;;5051769;28;47174;-71
2023/08/13 05:58:39;;;;;;;14.67;6.10;;;23.40;41.20;;;;;;5054120;28;45849;-71
2023/08/13 06:01:05;;;;;;;10.10;6.23;;;23.50;41.10;;;;;;5050867;28;46742;-72
2023/08/13 06:03:34;;;;;;;10.90;5.90;;;24.00;40.00;;;;;;5055089;28;46545;-72
2023/08/13 06:06:00;;;;;;;14.63;5.70;;;25.40;36.60;;;;;;5053822;28;46429;-70
2023/08/13 06:08:25;;;;;;;10.37;5.53;;;26.70;32.40;;;;;;5057953;28;46451;-71
2023/08/13 06:10:51;;;;;;;7.63;5.13;;;27.70;29.10;;;;;;5060862;22;46896;-68
2023/08/13 06:13:17;;;;;;;10.03;6.03;;;28.50;26.90;;;;;;5070444;27;46630;-70
2023/08/13 06:15:44;;;;;;;10.00;5.17;;;29.00;25.40;;;;;;5015309;28;46416;-69
2023/08/13 06:18:13;;;;;;;10.23;4.53;;;29.40;24.30;;;;;;4995934;28;46391;-69
2023/08/13 06:20:39;;;;;;;7.37;4.37;;;30.00;22.90;;;;;;5039948;28;47042;-69
2023/08/13 06:23:06;;;;;;;9.53;5.10;;;30.40;21.50;;;;;;5039700;28;46603;-69
2023/08/13 06:25:34;;;;;;;8.70;4.83;;;30.70;20.10;;;;;;5040616;28;46949;-69
2023/08/13 06:28:01;;;;;;;12.47;5.20;;;31.10;18.50;;;;;;4996431;28;46695;-69
2023/08/13 06:30:27;;;;;;;9.10;5.30;;;31.40;17.90;;;;;;5027899;28;46800;-68
2023/08/13 06:32:52;;;;;;;10.27;5.17;;;31.50;17.00;;;;;;5037671;28;46538;-68
2023/08/13 06:35:18;;;;;;;11.27;4.90;;;31.00;18.10;;;;;;5055489;28;47259;-67
2023/08/13 06:37:43;;;;;;;7.20;4.47;;;30.30;20.40;;;;;;5048318;28;46687;-69
2023/08/13 06:40:09;;;;;;;7.50;4.63;;;29.40;22.40;;;;;;5054095;28;46409;-68
2023/08/13 06:42:35;;;;;;;7.47;5.20;;;28.50;23.30;;;;;;5057307;28;46408;-67
2023/08/13 06:45:01;;;;;;;7.30;4.40;;;28.60;21.90;;;;;;5051154;28;46536;-69
2023/08/13 06:47:26;;;;;;;8.77;5.00;;;29.30;19.00;;;;;;5049754;28;46390;-69
2023/08/13 06:49:52;;;;;;;9.47;5.37;;;29.90;17.50;;;;;;5048749;28;46469;-68
2023/08/13 06:52:17;;;;;;;14.43;5.23;;;30.20;15.80;;;;;;5050844;28;46433;-68
2023/08/13 06:54:43;;;;;;;8.47;4.30;;;30.80;14.50;;;;;;5048117;28;46393;-68
2023/08/13 06:57:09;;;;;;;8.07;4.90;;;31.30;12.90;;;;;;5046603;28;46753;-69
2023/08/13 06:59:34;;;;;;;6.10;4.00;;;31.30;12.40;;;;;;5049275;28;46782;-68
2023/08/13 07:02:00;;;;;;;7.83;4.53;;;31.40;12.10;;;;;;5056052;28;46626;-66
2023/08/13 07:04:25;;;;;;;7.37;4.60;;;30.50;14.60;;;;;;5053991;28;46099;-67
2023/08/13 07:06:51;;;;;;;9.60;4.47;;;29.60;17.10;;;;;;5050137;28;46477;-68
2023/08/13 07:09:17;;;;;;;8.33;5.07;;;28.90;18.70;;;;;;5052004;28;46342;-67
2023/08/13 07:11:42;;;;;;;7.63;4.47;;;28.60;19.70;;;;;;5049487;28;46760;-70
2023/08/13 07:14:08;;;;;;;10.80;4.70;;;28.20;20.20;;;;;;5048887;28;46357;-68
2023/08/13 07:16:34;;;;;;;6.33;4.57;;;27.70;21.20;;;;;;5052348;28;46403;-68
2023/08/13 07:19:00;;;;;;;14.33;4.93;;;27.60;21.60;;;;;;5049213;28;46444;-68
2023/08/13 07:21:26;;;;;;;9.20;4.60;;;27.30;22.10;;;;;;5051957;28;46483;-68
2023/08/13 07:23:52;;;;;;;11.50;4.80;;;27.10;21.80;;;;;;5051212;28;47287;-66
2023/08/13 07:26:18;;;;;;;10.60;5.00;;;27.10;22.60;;;;;;5044854;28;46647;-67
2023/08/13 07:28:44;;;;;;;9.30;5.27;;;27.00;22.90;;;;;;5059580;28;46393;-67
2023/08/13 07:31:10;;;;;;;8.80;4.80;;;26.80;23.40;;;;;;5054482;28;46577;-67
2023/08/13 07:33:35;;;;;;;7.63;4.70;;;26.60;24.20;;;;;;5051801;28;46357;-67
2023/08/13 07:36:03;;;;;;;10.73;4.73;;;26.60;24.90;;;;;;5056735;28;46428;-68
2023/08/13 07:38:29;;;;;;;8.60;4.37;;;26.80;24.80;;;;;;5061603;28;46479;-68
2023/08/13 07:40:57;;;;;;;9.20;4.37;;;26.90;24.70;;;;;;5056665;28;46662;-68
2023/08/13 07:43:24;;;;;;;7.60;5.00;;;27.20;24.10;;;;;;5049259;28;47263;-68
2023/08/13 07:45:50;;;;;;;8.80;5.30;;;27.40;23.50;;;;;;5062843;28;46488;-68
2023/08/13 07:48:16;;;;;;;8.73;4.47;;;27.50;23.40;;;;;;5043210;28;46394;-69
2023/08/13 07:50:42;;;;;;;8.83;4.83;;;27.70;23.80;;;;;;5054422;28;46378;-69
2023/08/13 07:53:07;;;;;;;11.20;5.10;;;28.10;22.00;;;;;;5049724;28;47212;-68
2023/08/13 07:55:33;;;;;;;7.87;4.27;;;28.20;21.60;;;;;;5047287;28;46863;-68
2023/08/13 07:57:59;;;;;;;7.57;4.93;;;28.50;21.00;;;;;;5057584;28;46486;-68
2023/08/13 08:00:24;;;;;;;10.80;4.90;;;28.70;20.50;;;;;;5051520;28;45921;-67
2023/08/13 08:02:50;;;;;;;9.90;4.57;;;28.80;20.10;;;;;;5061004;28;46989;-69
2023/08/13 08:05:16;;;;;;;11.87;4.90;;;28.70;20.20;;;;;;5053495;28;46367;-69
2023/08/13 08:07:42;;;;;;;10.83;4.43;;;28.30;21.10;;;;;;5050347;28;46381;-69
2023/08/13 08:10:07;;;;;;;8.93;4.40;;;28.20;21.40;;;;;;5048433;28;46470;-68
2023/08/13 08:12:33;;;;;;;11.40;4.50;;;28.00;21.80;;;;;;5052788;28;46732;-67
2023/08/13 08:14:59;;;;;;;6.20;3.80;;;28.00;21.90;;;;;;5044154;28;46725;-68
2023/08/13 08:17:24;;;;;;;6.60;3.87;;;28.10;21.80;;;;;;5052178;28;46325;-68
2023/08/13 08:19:50;;;;;;;6.40;3.80;;;28.00;21.20;;;;;;5061494;28;46588;-68
2023/08/13 08:22:16;;;;;;;9.73;4.30;;;28.00;20.70;;;;;;5057799;28;47972;-68
2023/08/13 08:24:41;;;;;;;6.70;3.73;;;28.00;20.80;;;;;;5050929;28;46411;-69
2023/08/13 08:27:10;;;;;;;6.47;3.70;;;28.10;20.70;;;;;;5052912;28;45911;-68
2023/08/13 08:29:36;;;;;;;6.60;4.40;;;27.90;20.60;;;;;;5047892;28;46428;-67
2023/08/13 08:32:02;;;;;;;9.23;4.10;;;28.00;20.70;;;;;;5057445;28;46328;-69
2023/08/13 08:34:29;;;;;;;7.30;4.07;;;28.10;20.30;;;;;;5054410;28;46411;-70
2023/08/13 08:36:55;;;;;;;7.30;3.87;;;28.40;19.50;;;;;;5050105;28;45915;-67
2023/08/13 08:39:21;;;;;;;7.73;4.10;;;28.50;19.20;;;;;;5052535;28;46859;-68
2023/08/13 08:41:47;;;;;;;7.80;4.80;;;28.70;18.90;;;;;;5032640;28;47464;-72
2023/08/13 08:44:20;;;;;;;6.70;3.87;;;28.50;19.30;;;;;;5046584;28;46697;-69
2023/08/13 08:46:50;;;;;;;7.43;4.50;;;28.10;19.80;;;;;;5054234;28;46492;-70
2023/08/13 08:49:21;;;;;;;7.83;4.63;;;27.90;20.70;;;;;;5058525;28;46408;-69
2023/08/13 08:51:47;;;;;;;9.23;4.20;;;27.90;21.10;;;;;;5056367;28;47164;-70
2023/08/13 08:54:13;;;;;;;9.47;4.53;;;28.20;20.70;;;;;;5054211;28;46643;-69
2023/08/13 08:56:39;;;;;;;8.23;4.03;;;28.20;20.70;;;;;;5057024;28;46445;-69
2023/08/13 08:59:05;;;;;;;9.63;4.07;;;28.20;20.90;;;;;;5059475;28;46678;-70
2023/08/13 09:01:31;;;;;;;7.40;4.10;;;28.30;20.30;;;;;;5058049;28;47247;-71
2023/08/13 09:03:57;;;;;;;5.97;3.77;;;28.90;18.40;;;;;;5044214;28;46365;-73
2023/08/13 09:06:22;;;;;;;5.77;4.03;;;28.90;19.10;;;;;;5054274;28;46398;-70
2023/08/13 09:08:49;;;;;;;7.63;4.77;;;29.00;18.60;;;;;;5054205;28;46375;-70
2023/08/13 09:11:17;;;;;;;6.10;3.80;;;28.90;18.20;;;;;;5046328;28;47230;-69
2023/08/13 09:13:49;;;;;;;9.70;3.87;;;28.80;18.40;;;;;;5055643;28;46425;-69
2023/08/13 09:16:15;;;;;;;7.83;4.20;;;28.50;18.40;;;;;;5055644;28;46190;-69
2023/08/13 09:18:41;;;;;;;9.27;4.40;;;28.50;18.70;;;;;;5051072;28;46839;-69
2023/08/13 09:21:09;;;;;;;9.17;4.20;;;28.60;17.90;;;;;;5051530;28;46538;-69
2023/08/13 09:23:38;;;;;;;7.60;3.90;;;29.10;17.10;;;;;;5056030;28;46465;-69
2023/08/13 09:26:03;;;;;;;6.83;3.67;;;29.10;17.10;;;;;;5058137;28;46475;-69
2023/08/13 09:28:29;;;;;;;7.63;3.53;;;29.10;17.10;;;;;;5049549;28;46373;-69
2023/08/13 09:30:57;;;;;;;8.03;3.70;;;29.30;17.30;;;;;;5050783;28;47119;-69
2023/08/13 09:33:22;;;;;;;7.20;3.70;;;29.00;17.00;;;;;;5054419;28;46409;-68
2023/08/13 09:35:48;;;;;;;7.80;4.30;;;28.90;17.00;;;;;;5049705;28;46432;-69
2023/08/13 09:38:14;;;;;;;12.03;3.17;;;28.90;17.00;;;;;;5057230;28;46448;-69
2023/08/13 09:40:39;;;;;;;9.17;4.07;;;29.20;17.10;;;;;;5054799;28;46504;-70
2023/08/13 09:43:06;;;;;;;9.37;4.23;;;29.50;16.80;;;;;;5054932;28;46338;-69
2023/08/13 09:45:33;;;;;;;7.33;3.80;;;29.50;16.70;;;;;;5061164;28;46440;-69
2023/08/13 09:48:05;;;;;;;8.83;4.47;;;29.30;17.20;;;;;;5060575;28;46372;-69
2023/08/13 09:50:40;;;;;;;8.17;4.43;;;29.20;17.10;;;;;;5043923;28;46953;-71
2023/08/13 09:53:11;;;;;;;9.03;4.30;;;29.20;17.10;;;;;;5052453;28;46657;-68
2023/08/13 09:55:43;;;;;;;6.07;3.90;;;29.20;18.10;;;;;;5051550;28;45847;-68
2023/08/13 09:58:12;;;;;;;10.33;4.07;;;29.10;17.10;;;;;;5058718;28;46443;-71
2023/08/13 10:00:37;;;;;;;10.90;3.53;;;29.00;17.50;;;;;;5045412;28;46651;-69
2023/08/13 10:03:03;;;;;;;5.03;3.60;;;29.00;17.30;;;;;;5056464;28;46076;-68
2023/08/13 10:05:29;;;;;;;5.90;3.93;;;29.20;17.10;;;;;;5054815;28;46470;-71
2023/08/13 10:07:55;;;;;;;10.80;4.40;;;29.60;16.70;;;;;;5047581;28;47008;-69
2023/08/13 10:10:23;;;;;;;6.23;3.40;;;29.70;16.40;;;;;;5059505;28;46047;-71
2023/08/13 10:12:49;;;;;;;6.80;3.40;;;29.60;16.40;;;;;;5046454;28;46337;-69
2023/08/13 10:15:15;;;;;;;7.70;3.97;;;29.60;16.10;;;;;;5049357;28;46759;-70
2023/08/13 10:17:44;;;;;;;6.77;3.50;;;29.60;16.30;;;;;;5055652;28;46769;-69
2023/08/13 10:20:10;;;;;;;6.10;3.63;;;29.80;15.70;;;;;;5049021;28;46398;-69
2023/08/13 10:22:38;;;;;;;8.53;3.93;;;29.70;15.60;;;;;;5052746;28;46386;-71
2023/08/13 10:25:10;;;;;;;5.00;3.10;;;29.50;16.40;;;;;;5059324;28;46507;-68
2023/08/13 10:27:43;;;;;;;17.73;4.10;;;29.40;16.90;;;;;;5027871;28;46536;-68
2023/08/13 10:30:10;;;;;;;7.30;3.30;;;29.50;16.70;;;;;;5024741;28;46456;-67
2023/08/13 10:32:58;;;;;;;9.10;4.23;;;29.60;16.30;;;;;;5038418;28;46377;-70
2023/08/13 10:35:34;;;;;;;13.57;4.50;;;29.50;16.30;;;;;;5033162;28;46478;-68
2023/08/13 10:38:02;;;;;;;6.80;3.63;;;29.30;16.70;;;;;;5036142;28;46848;-69
2023/08/13 10:40:28;;;;;;;6.43;3.73;;;29.20;17.10;;;;;;5031497;28;47531;-68
2023/08/13 10:42:55;;;;;;;11.77;3.93;;;29.20;17.10;;;;;;5036227;28;46731;-68
2023/08/13 10:45:30;;;;;;;6.70;3.70;;;29.30;17.00;;;;;;5036319;28;46702;-67
2023/08/13 10:47:58;;;;;;;7.17;3.70;;;29.50;16.70;;;;;;5029221;28;46665;-70
2023/08/13 10:50:43;;;;;;;7.00;3.73;;;29.60;16.40;;;;;;5036397;28;46682;-68
2023/08/13 10:53:19;;;;;;;10.90;4.20;;;29.70;16.10;;;;;;5026508;28;46479;-68
2023/08/13 10:55:48;;;;;;;7.13;3.30;;;29.50;16.60;;;;;;5027566;28;46040;-69
2023/08/13 10:58:36;;;;;;;8.27;3.60;;;29.30;17.20;;;;;;5032117;28;46398;-67
2023/08/13 11:01:19;;;;;;;6.47;3.53;;;29.60;16.50;;;;;;5032474;28;46704;-69
2023/08/13 11:03:53;;;;;;;6.53;4.03;;;30.10;14.80;;;;;;5038194;28;46600;-68
2023/08/13 11:06:20;;;;;;;9.70;3.73;;;30.10;15.60;;;;;;5037460;28;46397;-68
2023/08/13 11:08:46;;;;;;;6.57;3.93;;;30.10;15.50;;;;;;5029711;28;46347;-68
2023/08/13 11:11:13;;;;;;;8.23;4.03;;;30.10;15.50;;;;;;5026700;28;48004;-68
2023/08/13 11:13:39;;;;;;;10.47;3.83;;;30.30;15.20;;;;;;5033387;28;46702;-69
2023/08/13 11:16:05;;;;;;;7.47;3.50;;;30.40;15.00;;;;;;5020637;28;46508;-70
2023/08/13 11:18:31;;;;;;;8.70;3.43;;;30.50;14.70;;;;;;5038790;28;46608;-68
2023/08/13 11:20:57;;;;;;;6.20;3.37;;;30.50;14.20;;;;;;5037328;28;46387;-68
2023/08/13 11:23:22;;;;;;;5.10;3.33;;;30.40;14.50;;;;;;5034452;28;46493;-69
2023/08/13 11:25:49;;;;;;;7.47;3.73;;;30.50;14.30;;;;;;5047653;28;46472;-69
2023/08/13 11:28:19;;;;;;;11.00;3.40;;;30.70;13.70;;;;;;5046586;28;46322;-69
2023/08/13 11:30:46;;;;;;;12.33;3.40;;;30.90;13.20;;;;;;5031216;28;46521;-68
2023/08/13 11:33:12;;;;;;;6.33;3.67;;;31.00;13.10;;;;;;5033329;28;46464;-69
2023/08/13 11:35:39;;;;;;;6.00;4.23;;;31.00;12.90;;;;;;5038902;28;46387;-69
2023/08/13 11:38:05;;;;;;;9.37;3.90;;;30.80;13.00;;;;;;5032738;28;46508;-70
2023/08/13 11:40:31;;;;;;;7.07;3.50;;;30.70;13.30;;;;;;5032299;28;46475;-69
2023/08/13 11:43:01;;;;;;;5.27;3.17;;;30.70;13.30;;;;;;5037421;28;46429;-69
2023/08/13 11:45:30;;;;;;;8.43;4.07;;;30.90;13.00;;;;;;5026112;28;46127;-69
2023/08/13 11:48:17;;;;;;;9.80;4.37;;;30.90;12.50;;;;;;5037948;28;46335;-68
2023/08/13 11:50:52;;;;;;;17.20;3.50;;;31.00;12.10;;;;;;5029994;28;49096;-69
2023/08/13 11:53:17;;;;;;;6.57;3.20;;;31.20;11.90;;;;;;5036178;28;46490;-70
2023/08/13 11:55:45;;;;;;;7.13;3.67;;;31.20;11.70;;;;;;5036405;28;46468;-70
2023/08/13 11:58:11;;;;;;;6.07;3.80;;;31.30;11.60;;;;;;5039200;28;46388;-69
2023/08/13 12:00:37;;;;;;;6.60;3.80;;;31.20;11.20;;;;;;5024953;28;46480;-69
2023/08/13 12:03:03;;;;;;;5.23;3.30;;;31.00;12.30;;;;;;5042788;28;46417;-70
2023/08/13 12:05:31;;;;;;;4.47;3.30;;;30.90;11.20;;;;;;5039207;28;46405;-68
2023/08/13 12:07:58;;;;;;;6.10;3.20;;;30.80;11.30;;;;;;5039811;28;46801;-69
2023/08/13 12:10:25;;;;;;;7.50;3.97;;;30.70;11.20;;;;;;5032606;28;46364;-68
2023/08/13 12:12:50;;;;;;;6.80;3.27;;;30.80;11.00;;;;;;5039547;28;46521;-69
2023/08/13 12:15:22;;;;;;;7.13;3.90;;;30.80;11.00;;;;;;5024738;28;46436;-70
2023/08/13 12:17:48;;;;;;;5.03;3.17;;;30.90;10.60;;;;;;5031799;28;46406;-70
2023/08/13 12:20:13;;;;;;;10.93;3.10;;;31.00;10.30;;;;;;5038722;28;46445;-69
2023/08/13 12:22:39;;;;;;;5.47;2.93;;;30.80;10.00;;;;;;5034367;28;46397;-70
2023/08/13 12:25:06;;;;;;;7.10;3.90;;;30.80;9.80;;;;;;5037581;28;46449;-67
2023/08/13 12:27:32;;;;;;;7.73;3.30;;;30.90;9.50;;;;;;5026559;28;46481;-68
2023/08/13 12:29:58;;;;;;;13.43;3.30;;;30.90;8.90;;;;;;5033839;28;46745;-70
2023/08/13 12:32:27;;;;;;;10.97;3.40;;;30.90;9.00;;;;;;5035909;28;46511;-70
2023/08/13 12:34:53;;;;;;;9.30;2.73;;;31.10;9.20;;;;;;5030250;28;45835;-71
2023/08/13 12:37:19;;;;;;;7.93;3.83;;;31.30;9.00;;;;;;5027280;28;46329;-70
2023/08/13 12:39:44;;;;;;;6.70;3.60;;;31.40;8.70;;;;;;5004847;28;48226;-68